createdAt,value
2023-01-13T00:00:31.726Z,10.48
2023-01-13T00:02:59.693Z,10.47
2023-01-13T00:05:28.368Z,10.47
2023-01-13T00:07:56.406Z,10.47
2023-01-13T00:10:24.718Z,10.46
2023-01-13T00:12:53.553Z,10.47
2023-01-13T00:15:21.633Z,10.44
2023-01-13T00:17:51.187Z,10.45
2023-01-13T00:20:19.376Z,10.45
2023-01-13T00:22:47.525Z,10.45
2023-01-13T00:25:15.782Z,10.45
2023-01-13T00:27:43.770Z,10.46
2023-01-13T00:30:13.001Z,10.43
2023-01-13T00:32:40.806Z,10.42
2023-01-13T00:35:10.984Z,10.43
2023-01-13T00:37:39.319Z,10.36
2023-01-13T00:40:08.391Z,10.40
2023-01-13T00:42:54.108Z,10.41
2023-01-13T00:45:22.007Z,10.40
2023-01-13T00:47:49.814Z,10.39
2023-01-13T00:50:19.384Z,10.39
2023-01-13T00:52:47.179Z,10.38
2023-01-13T00:55:15.270Z,10.40
2023-01-13T00:57:43.084Z,10.42
2023-01-13T01:00:12.210Z,10.41
2023-01-13T01:02:40.158Z,10.40
2023-01-13T01:05:08.873Z,10.40
2023-01-13T01:07:38.270Z,10.40
2023-01-13T01:10:07.174Z,10.41
2023-01-13T01:12:35.843Z,10.41
2023-01-13T01:15:06.044Z,10.40
2023-01-13T01:17:34.268Z,10.41
2023-01-13T01:20:02.213Z,10.41
2023-01-13T01:22:30.335Z,10.41
2023-01-13T01:24:59.905Z,10.39
2023-01-13T01:27:27.787Z,10.40
2023-01-13T01:29:55.630Z,10.39
2023-01-13T01:32:23.477Z,10.38
2023-01-13T01:34:51.991Z,10.38
2023-01-13T01:37:19.834Z,10.39
2023-01-13T01:39:47.695Z,10.39
2023-01-13T01:42:36.690Z,10.39
2023-01-13T01:45:14.772Z,10.37
2023-01-13T01:47:43.978Z,10.38
2023-01-13T01:50:13.137Z,10.37
2023-01-13T01:52:45.429Z,10.38
2023-01-13T01:55:17.606Z,10.41
2023-01-13T01:57:51.606Z,10.43
2023-01-13T02:00:19.884Z,10.45
2023-01-13T02:02:51.310Z,10.47
2023-01-13T02:05:19.621Z,10.47
2023-01-13T02:07:50.401Z,10.49
2023-01-13T02:10:21.259Z,10.51
2023-01-13T02:12:51.853Z,10.52
2023-01-13T02:15:23.933Z,10.54
2023-01-13T02:18:06.669Z,10.55
2023-01-13T02:20:57.263Z,10.55
2023-01-13T02:24:17.558Z,10.57
2023-01-13T02:27:25.187Z,10.56
2023-01-13T02:30:23.460Z,10.57
2023-01-13T02:33:04.417Z,10.57
2023-01-13T02:35:41.051Z,10.59
2023-01-13T02:38:12.094Z,10.62
2023-01-13T02:40:46.890Z,10.64
2023-01-13T02:43:36.047Z,10.65
2023-01-13T02:46:10.652Z,10.65
2023-01-13T02:48:41.670Z,10.69
2023-01-13T02:51:15.576Z,10.70
2023-01-13T02:53:48.017Z,10.71
2023-01-13T02:56:17.907Z,10.71
2023-01-13T02:58:48.271Z,10.71
2023-01-13T03:01:18.033Z,10.72
2023-01-13T03:03:46.974Z,10.73
2023-01-13T03:06:39.266Z,10.74
2023-01-13T03:09:13.245Z,10.77
2023-01-13T03:11:51.887Z,10.77
2023-01-13T03:14:28.803Z,10.78
2023-01-13T03:17:11.301Z,10.78
2023-01-13T03:19:45.111Z,10.79
2023-01-13T03:22:23.260Z,10.80
2023-01-13T03:24:54.637Z,10.80
2023-01-13T03:27:27.762Z,10.80
2023-01-13T03:30:01.992Z,10.82
2023-01-13T03:32:35.539Z,10.85
2023-01-13T03:35:10.121Z,10.86
2023-01-13T03:37:42.564Z,10.87
2023-01-13T03:40:15.238Z,10.86
2023-01-13T03:43:06.049Z,10.88
2023-01-13T03:45:35.855Z,10.88
2023-01-13T03:48:10.340Z,10.85
2023-01-13T03:50:43.063Z,10.88
2023-01-13T03:53:15.544Z,10.89
2023-01-13T03:55:47.173Z,10.88
2023-01-13T03:58:20.385Z,10.91
2023-01-13T04:00:52.550Z,10.91
2023-01-13T04:03:26.184Z,10.90
2023-01-13T04:06:05.396Z,10.89
2023-01-13T04:08:35.982Z,10.88
2023-01-13T04:11:06.706Z,10.88
2023-01-13T04:13:39.570Z,10.87
2023-01-13T04:16:09.243Z,10.88
2023-01-13T04:18:40.569Z,10.86
2023-01-13T04:21:09.388Z,10.86
2023-01-13T04:23:37.398Z,10.87
2023-01-13T04:26:05.399Z,10.86
2023-01-13T04:28:34.873Z,10.87
2023-01-13T04:31:02.861Z,10.87
2023-01-13T04:33:30.690Z,10.86
2023-01-13T04:36:00.092Z,10.87
2023-01-13T04:38:27.957Z,10.87
2023-01-13T04:40:55.843Z,10.87
2023-01-13T04:43:23.740Z,10.88
2023-01-13T04:45:52.069Z,10.89
2023-01-13T04:48:20.082Z,10.88
2023-01-13T04:50:48.525Z,10.89
2023-01-13T04:53:17.992Z,10.88
2023-01-13T04:55:47.939Z,10.86
2023-01-13T04:58:15.845Z,10.85
2023-01-13T05:00:43.766Z,10.84
2023-01-13T05:03:11.644Z,10.81
2023-01-13T05:05:39.720Z,10.79
2023-01-13T05:08:09.065Z,10.76
2023-01-13T05:10:38.341Z,10.72
2023-01-13T05:13:23.036Z,10.67
2023-01-13T05:16:19.851Z,10.64
2023-01-13T05:18:47.784Z,10.58
2023-01-13T05:21:29.522Z,10.56
2023-01-13T05:24:14.750Z,10.54
2023-01-13T05:26:44.220Z,10.54
2023-01-13T05:29:12.157Z,10.56
2023-01-13T05:31:40.238Z,10.59
2023-01-13T05:34:08.123Z,10.61
2023-01-13T05:36:36.128Z,10.64
2023-01-13T05:39:05.484Z,10.68
2023-01-13T05:41:51.097Z,10.69
2023-01-13T05:44:20.329Z,10.70
2023-01-13T05:46:48.461Z,10.73
2023-01-13T05:49:16.298Z,10.75
2023-01-13T05:51:44.101Z,10.77
2023-01-13T05:54:12.062Z,10.79
2023-01-13T05:56:39.866Z,10.80
2023-01-13T05:59:07.796Z,10.82
2023-01-13T06:01:37.262Z,10.83
2023-01-13T06:04:05.599Z,10.83
2023-01-13T06:06:33.664Z,10.84
2023-01-13T06:09:01.710Z,10.87
2023-01-13T06:11:30.210Z,10.88
2023-01-13T06:13:58.260Z,10.89
2023-01-13T06:16:26.085Z,10.89
2023-01-13T06:18:55.825Z,10.90
2023-01-13T06:21:23.665Z,10.91
2023-01-13T06:23:51.564Z,10.92
2023-01-13T06:26:21.996Z,10.91
2023-01-13T06:28:50.047Z,10.92
2023-01-13T06:31:18.229Z,10.92
2023-01-13T06:33:50.578Z,10.91
2023-01-13T06:36:22.162Z,10.91
2023-01-13T06:38:55.214Z,10.90
2023-01-13T06:41:43.788Z,10.90
2023-01-13T06:44:10.872Z,10.89
2023-01-13T06:46:38.904Z,10.87
2023-01-13T06:49:07.005Z,10.85
2023-01-13T06:51:36.433Z,10.84
2023-01-13T06:54:04.723Z,10.82
2023-01-13T06:56:32.668Z,10.81
2023-01-13T06:59:00.508Z,10.81
2023-01-13T07:01:28.464Z,10.81
2023-01-13T07:03:56.589Z,10.82
2023-01-13T07:06:24.343Z,10.82
2023-01-13T07:08:53.584Z,10.83
2023-01-13T07:11:21.809Z,10.85
2023-01-13T07:14:06.999Z,10.87
2023-01-13T07:16:34.815Z,10.86
2023-01-13T07:19:02.898Z,10.87
2023-01-13T07:21:30.722Z,10.88
2023-01-13T07:24:00.044Z,10.89
2023-01-13T07:26:27.974Z,10.89
2023-01-13T07:28:55.758Z,10.90
2023-01-13T07:31:24.261Z,10.91
2023-01-13T07:33:52.097Z,10.92
2023-01-13T07:36:20.263Z,10.93
2023-01-13T07:38:48.226Z,10.96
2023-01-13T07:41:37.371Z,10.97
2023-01-13T07:44:06.292Z,10.98
2023-01-13T07:46:34.217Z,10.99
2023-01-13T07:49:01.998Z,11.00
2023-01-13T07:51:29.846Z,11.02
2023-01-13T07:53:57.727Z,11.03
2023-01-13T07:56:26.924Z,11.02
2023-01-13T07:58:54.821Z,11.05
2023-01-13T08:01:23.081Z,11.06
2023-01-13T08:03:51.067Z,11.07
2023-01-13T08:06:20.359Z,11.08
2023-01-13T08:08:48.336Z,11.06
2023-01-13T08:11:16.185Z,11.07
2023-01-13T08:13:45.389Z,11.05
2023-01-13T08:16:15.110Z,11.04
2023-01-13T08:18:44.097Z,11.04
2023-01-13T08:21:13.706Z,11.04
2023-01-13T08:23:41.863Z,11.03
2023-01-13T08:26:11.620Z,11.03
2023-01-13T08:28:41.425Z,11.01
2023-01-13T08:31:13.623Z,11.00
2023-01-13T08:33:42.418Z,11.00
2023-01-13T08:36:12.529Z,11.03
2023-01-13T08:38:40.760Z,10.95
2023-01-13T08:41:12.416Z,10.91
2023-01-13T08:43:40.088Z,10.89
2023-01-13T08:46:07.909Z,10.87
2023-01-13T08:48:37.446Z,10.84
2023-01-13T08:51:05.673Z,10.83
2023-01-13T08:53:33.320Z,10.84
2023-01-13T08:56:00.917Z,10.85
2023-01-13T08:58:28.478Z,10.85
2023-01-13T09:00:56.251Z,10.87
2023-01-13T09:03:23.953Z,10.89
2023-01-13T09:05:52.934Z,10.90
2023-01-13T09:08:20.584Z,10.94
2023-01-13T09:10:48.539Z,10.96
2023-01-13T09:13:15.701Z,10.99
2023-01-13T09:15:45.142Z,11.02
2023-01-13T09:18:13.559Z,11.03
2023-01-13T09:20:41.504Z,11.01
2023-01-13T09:23:11.426Z,10.99
2023-01-13T09:25:39.542Z,10.96
2023-01-13T09:28:08.399Z,10.94
2023-01-13T09:30:36.545Z,10.92
2023-01-13T09:33:21.732Z,10.90
2023-01-13T09:35:49.455Z,10.88
2023-01-13T09:38:18.644Z,10.86
2023-01-13T09:40:48.940Z,10.84
2023-01-13T09:43:36.818Z,10.82
2023-01-13T09:46:06.638Z,10.82
2023-01-13T09:48:51.824Z,10.81
2023-01-13T09:51:25.737Z,10.79
2023-01-13T09:53:59.270Z,10.79
2023-01-13T09:56:27.068Z,10.77
2023-01-13T09:58:54.862Z,10.76
2023-01-13T10:01:25.740Z,10.76
2023-01-13T10:03:54.517Z,10.75
2023-01-13T10:06:25.683Z,10.73
2023-01-13T10:08:53.753Z,10.72
2023-01-13T10:11:40.954Z,10.70
2023-01-13T10:14:13.590Z,10.65
2023-01-13T10:16:44.839Z,10.60
2023-01-13T10:19:16.145Z,10.55
2023-01-13T10:22:02.596Z,10.50
2023-01-13T10:24:36.379Z,10.45
2023-01-13T10:27:08.025Z,10.39
2023-01-13T10:29:37.279Z,10.34
2023-01-13T10:32:05.411Z,10.29
2023-01-13T10:34:45.852Z,10.24
2023-01-13T10:37:20.846Z,10.21
2023-01-13T10:39:49.371Z,10.19
2023-01-13T10:42:19.891Z,10.18
2023-01-13T10:44:48.727Z,10.19
2023-01-13T10:47:34.334Z,10.17
2023-01-13T10:50:19.470Z,10.17
2023-01-13T10:52:58.246Z,10.19
2023-01-13T10:55:27.255Z,10.22
2023-01-13T10:57:56.457Z,10.23
2023-01-13T11:00:28.278Z,10.27
2023-01-13T11:03:17.140Z,10.32
2023-01-13T11:05:52.705Z,10.36
2023-01-13T11:08:21.471Z,10.39
2023-01-13T11:10:50.770Z,10.44
2023-01-13T11:13:25.023Z,10.50
2023-01-13T11:15:56.177Z,10.57
2023-01-13T11:18:28.951Z,10.62
2023-01-13T11:20:57.845Z,10.70
2023-01-13T11:23:31.363Z,10.75
2023-01-13T11:26:02.867Z,10.80
2023-01-13T11:28:40.459Z,10.85
2023-01-13T11:31:11.887Z,10.90
2023-01-13T11:33:42.475Z,10.95
2023-01-13T11:36:13.319Z,11.00
2023-01-13T11:38:44.163Z,11.06
2023-01-13T11:41:16.156Z,11.11
2023-01-13T11:43:48.173Z,11.16
2023-01-13T11:46:16.142Z,11.20
2023-01-13T11:48:44.345Z,11.26
2023-01-13T11:51:20.320Z,11.28
2023-01-13T11:54:02.227Z,11.31
2023-01-13T11:56:39.409Z,11.30
2023-01-13T11:59:14.330Z,11.25
2023-01-13T12:01:50.162Z,11.18
2023-01-13T12:04:24.544Z,11.12
2023-01-13T12:07:00.241Z,11.08
2023-01-13T12:09:33.640Z,11.02
2023-01-13T12:12:27.480Z,10.97
2023-01-13T12:15:13.130Z,10.93
2023-01-13T12:17:48.936Z,10.93
2023-01-13T12:20:25.763Z,10.92
2023-01-13T12:22:57.771Z,10.94
2023-01-13T12:25:30.317Z,10.97
2023-01-13T12:28:00.591Z,10.98
2023-01-13T12:30:30.427Z,11.02
2023-01-13T12:33:05.453Z,11.05
2023-01-13T12:35:39.197Z,11.09
2023-01-13T12:38:12.762Z,11.12
2023-01-13T12:40:48.044Z,11.17
2023-01-13T12:43:38.243Z,11.25
2023-01-13T12:46:33.138Z,11.33
2023-01-13T12:49:08.377Z,11.39
2023-01-13T12:51:37.418Z,11.42
2023-01-13T12:54:25.445Z,11.42
2023-01-13T12:56:54.628Z,11.43
2023-01-13T12:59:48.671Z,11.44
2023-01-13T13:02:36.557Z,11.43
2023-01-13T13:05:22.814Z,11.45
2023-01-13T13:07:53.024Z,11.51
2023-01-13T13:10:28.850Z,11.54
2023-01-13T13:13:18.282Z,11.59
2023-01-13T13:15:46.755Z,11.63
2023-01-13T13:18:23.939Z,11.67
2023-01-13T13:21:05.776Z,11.71
2023-01-13T13:23:51.454Z,11.78
2023-01-13T13:26:28.979Z,11.83
2023-01-13T13:29:06.557Z,11.85
2023-01-13T13:31:42.552Z,11.85
2023-01-13T13:34:16.739Z,11.84
2023-01-13T13:37:08.610Z,11.82
2023-01-13T13:40:00.161Z,11.80
2023-01-13T13:42:48.570Z,11.78
2023-01-13T13:45:38.363Z,11.76
2023-01-13T13:48:20.517Z,11.73
2023-01-13T13:50:48.746Z,11.72
2023-01-13T13:53:18.336Z,11.70
2023-01-13T13:55:54.004Z,11.68
2023-01-13T13:58:26.336Z,11.67
2023-01-13T14:00:54.722Z,11.65
2023-01-13T14:03:25.020Z,11.64
2023-01-13T14:05:57.503Z,11.61
2023-01-13T14:08:25.621Z,11.59
2023-01-13T14:10:53.392Z,11.54
2023-01-13T14:13:22.292Z,11.50
2023-01-13T14:15:57.235Z,11.48
2023-01-13T14:18:25.938Z,11.45
2023-01-13T14:20:54.106Z,11.44
2023-01-13T14:23:24.508Z,11.41
2023-01-13T14:25:52.824Z,11.40
2023-01-13T14:28:25.514Z,11.37
2023-01-13T14:30:55.577Z,11.33
2023-01-13T14:33:24.876Z,11.29
2023-01-13T14:36:11.423Z,11.24
2023-01-13T14:38:39.094Z,11.17
2023-01-13T14:41:12.496Z,11.11
2023-01-13T14:43:43.966Z,11.05
2023-01-13T14:46:14.056Z,11.02
2023-01-13T14:48:47.043Z,10.98
2023-01-13T14:51:21.628Z,10.95
2023-01-13T14:53:49.887Z,10.92
2023-01-13T14:56:40.783Z,10.90
2023-01-13T14:59:27.161Z,10.86
2023-01-13T15:01:57.514Z,10.82
2023-01-13T15:04:26.379Z,10.79
2023-01-13T15:06:55.934Z,10.76
2023-01-13T15:09:24.899Z,10.74
2023-01-13T15:11:54.280Z,10.71
2023-01-13T15:14:24.869Z,10.69
2023-01-13T15:16:52.612Z,10.66
2023-01-13T15:19:21.730Z,10.62
2023-01-13T15:21:49.566Z,10.57
2023-01-13T15:24:17.364Z,10.54
2023-01-13T15:26:45.368Z,10.50
2023-01-13T15:29:14.673Z,10.45
2023-01-13T15:31:42.518Z,10.43
2023-01-13T15:34:10.269Z,10.37
2023-01-13T15:36:40.775Z,10.34
2023-01-13T15:39:08.619Z,10.31
2023-01-13T15:41:53.971Z,10.28
2023-01-13T15:44:39.145Z,10.25
2023-01-13T15:47:08.445Z,10.21
2023-01-13T15:49:37.719Z,10.17
2023-01-13T15:52:18.856Z,10.14
2023-01-13T15:54:46.503Z,10.09
2023-01-13T15:57:21.208Z,10.06
2023-01-13T15:59:49.403Z,10.02
2023-01-13T16:02:18.396Z,9.98
2023-01-13T16:04:46.377Z,9.95
2023-01-13T16:07:16.691Z,9.92
2023-01-13T16:09:45.048Z,9.89
2023-01-13T16:12:12.890Z,9.88
2023-01-13T16:14:41.715Z,9.84
2023-01-13T16:17:14.876Z,9.83
2023-01-13T16:19:42.655Z,9.80
2023-01-13T16:22:13.102Z,9.80
2023-01-13T16:24:43.334Z,9.78
2023-01-13T16:27:14.241Z,9.76
2023-01-13T16:29:42.225Z,9.76
2023-01-13T16:32:10.127Z,9.73
2023-01-13T16:34:37.969Z,9.73
2023-01-13T16:37:07.033Z,9.73
2023-01-13T16:39:34.800Z,9.73
2023-01-13T16:42:03.908Z,9.71
2023-01-13T16:44:31.635Z,9.69
2023-01-13T16:46:59.483Z,9.69
2023-01-13T16:49:27.472Z,9.69
2023-01-13T16:51:55.311Z,9.67
2023-01-13T16:54:23.011Z,9.65
2023-01-13T16:56:50.806Z,9.64
2023-01-13T16:59:21.493Z,9.62
2023-01-13T17:01:49.391Z,9.61
2023-01-13T17:04:18.346Z,9.60
2023-01-13T17:06:51.725Z,9.59
2023-01-13T17:09:20.530Z,9.58
2023-01-13T17:11:48.243Z,9.56
2023-01-13T17:14:19.274Z,9.55
2023-01-13T17:16:48.591Z,9.53
2023-01-13T17:19:16.298Z,9.49
2023-01-13T17:21:44.195Z,9.47
2023-01-13T17:24:12.760Z,9.46
2023-01-13T17:26:43.342Z,9.46
2023-01-13T17:29:13.572Z,9.44
2023-01-13T17:31:41.493Z,9.41
2023-01-13T17:34:11.428Z,9.41
2023-01-13T17:36:39.245Z,9.39
2023-01-13T17:39:07.002Z,9.38
2023-01-13T17:41:34.741Z,9.36
2023-01-13T17:44:02.588Z,9.32
2023-01-13T17:46:30.266Z,9.30
2023-01-13T17:48:58.169Z,9.28
2023-01-13T17:51:27.432Z,9.24
2023-01-13T17:53:55.228Z,9.22
2023-01-13T17:56:24.668Z,9.17
2023-01-13T17:58:52.444Z,9.14
2023-01-13T18:01:22.922Z,9.10
2023-01-13T18:03:50.884Z,9.06
2023-01-13T18:06:19.549Z,9.02
2023-01-13T18:08:49.061Z,8.98
2023-01-13T18:11:18.758Z,8.96
2023-01-13T18:13:49.438Z,8.94
2023-01-13T18:16:18.393Z,8.93
2023-01-13T18:18:48.219Z,8.91
2023-01-13T18:21:36.947Z,8.88
2023-01-13T18:24:24.363Z,8.86
2023-01-13T18:27:10.056Z,8.83
2023-01-13T18:29:37.844Z,8.81
2023-01-13T18:32:07.646Z,8.81
2023-01-13T18:34:35.928Z,8.79
2023-01-13T18:37:03.625Z,8.78
2023-01-13T18:39:32.953Z,8.77
2023-01-13T18:42:18.163Z,8.74
2023-01-13T18:44:48.210Z,8.71
2023-01-13T18:47:16.169Z,8.70
2023-01-13T18:49:44.154Z,8.69
2023-01-13T18:52:28.008Z,8.69
2023-01-13T18:55:04.120Z,8.70
2023-01-13T18:57:31.986Z,8.71
2023-01-13T19:00:01.663Z,8.73
2023-01-13T19:02:31.636Z,8.74
2023-01-13T19:05:01.718Z,8.76
2023-01-13T19:07:32.286Z,8.81
2023-01-13T19:10:01.701Z,8.85
2023-01-13T19:12:33.666Z,8.88
2023-01-13T19:15:02.740Z,8.90
2023-01-13T19:17:32.366Z,8.93
2023-01-13T19:20:00.385Z,8.95
2023-01-13T19:22:30.354Z,8.96
2023-01-13T19:24:58.248Z,8.95
2023-01-13T19:27:28.451Z,8.96
2023-01-13T19:30:00.160Z,8.95
2023-01-13T19:32:30.623Z,8.94
2023-01-13T19:34:59.512Z,8.95
2023-01-13T19:37:30.296Z,8.95
2023-01-13T19:39:59.068Z,8.95
2023-01-13T19:42:45.817Z,8.97
2023-01-13T19:45:32.175Z,8.96
2023-01-13T19:48:02.001Z,8.95
2023-01-13T19:50:29.838Z,8.96
2023-01-13T19:52:57.897Z,8.95
2023-01-13T19:55:25.865Z,8.95
2023-01-13T19:57:54.923Z,8.94
2023-01-13T20:00:23.742Z,8.94
2023-01-13T20:02:53.248Z,8.93
2023-01-13T20:05:22.660Z,8.93
2023-01-13T20:07:51.151Z,8.95
2023-01-13T20:10:19.587Z,8.98
2023-01-13T20:12:47.380Z,9.01
2023-01-13T20:15:16.587Z,9.03
2023-01-13T20:17:44.527Z,9.04
2023-01-13T20:20:12.532Z,9.05
2023-01-13T20:22:40.590Z,9.05
2023-01-13T20:25:08.993Z,9.05
2023-01-13T20:27:36.980Z,9.05
2023-01-13T20:30:05.268Z,9.06
2023-01-13T20:32:34.380Z,9.08
2023-01-13T20:35:01.980Z,9.09
2023-01-13T20:37:29.667Z,9.10
2023-01-13T20:39:58.341Z,9.11
2023-01-13T20:42:32.327Z,9.11
2023-01-13T20:45:00.994Z,9.10
2023-01-13T20:47:29.366Z,9.10
2023-01-13T20:49:59.056Z,9.10
2023-01-13T20:52:27.155Z,9.10
2023-01-13T20:54:54.829Z,9.09
2023-01-13T20:57:22.626Z,9.09
2023-01-13T20:59:50.325Z,9.08
2023-01-13T21:02:19.426Z,9.06
2023-01-13T21:04:47.185Z,9.04
2023-01-13T21:07:16.603Z,9.04
2023-01-13T21:09:44.168Z,9.03
2023-01-13T21:12:31.945Z,9.02
2023-01-13T21:15:17.838Z,8.99
2023-01-13T21:18:03.369Z,8.98
2023-01-13T21:20:33.245Z,8.96
2023-01-13T21:23:03.067Z,8.94
2023-01-13T21:25:31.346Z,8.93
2023-01-13T21:28:03.257Z,8.92
2023-01-13T21:30:30.924Z,8.91
2023-01-13T21:33:00.727Z,8.92
2023-01-13T21:35:28.961Z,8.91
2023-01-13T21:37:56.650Z,8.89
2023-01-13T21:40:25.807Z,8.89
2023-01-13T21:43:11.129Z,8.89
2023-01-13T21:45:56.738Z,8.88
2023-01-13T21:48:24.821Z,8.89
2023-01-13T21:50:52.554Z,8.89
2023-01-13T21:53:20.573Z,8.88
2023-01-13T21:55:52.983Z,8.87
2023-01-13T21:58:21.117Z,8.84
2023-01-13T22:00:49.737Z,8.81
2023-01-13T22:03:18.527Z,8.80
2023-01-13T22:05:47.115Z,8.78
2023-01-13T22:08:14.994Z,8.75
2023-01-13T22:10:57.263Z,8.72
2023-01-13T22:13:44.384Z,8.68
2023-01-13T22:16:12.365Z,8.62
2023-01-13T22:18:40.118Z,8.58
2023-01-13T22:21:08.053Z,8.55
2023-01-13T22:23:35.636Z,8.53
2023-01-13T22:26:03.591Z,8.55
2023-01-13T22:28:39.819Z,8.54
2023-01-13T22:31:08.832Z,8.56
2023-01-13T22:33:36.590Z,8.56
2023-01-13T22:36:04.687Z,8.57
2023-01-13T22:38:33.403Z,8.55
2023-01-13T22:41:01.952Z,8.54
2023-01-13T22:43:30.176Z,8.53
2023-01-13T22:45:59.730Z,8.50
2023-01-13T22:48:27.599Z,8.49
2023-01-13T22:50:55.645Z,8.47
2023-01-13T22:53:23.249Z,8.45
2023-01-13T22:55:55.092Z,8.44
2023-01-13T22:58:23.130Z,8.45
2023-01-13T23:00:50.739Z,8.44
2023-01-13T23:03:20.471Z,8.44
2023-01-13T23:05:48.316Z,8.44
2023-01-13T23:08:16.010Z,8.44
2023-01-13T23:10:44.364Z,8.45
2023-01-13T23:13:11.989Z,8.46
2023-01-13T23:15:39.668Z,8.46
2023-01-13T23:18:07.501Z,8.43
2023-01-13T23:20:36.834Z,8.43
2023-01-13T23:23:04.555Z,8.44
2023-01-13T23:25:32.332Z,8.47
2023-01-13T23:28:00.001Z,8.49
2023-01-13T23:30:27.739Z,8.47
2023-01-13T23:32:55.494Z,8.47
2023-01-13T23:35:23.109Z,8.44
2023-01-13T23:37:52.766Z,8.44
2023-01-13T23:40:20.392Z,8.41
2023-01-13T23:42:48.116Z,8.40
2023-01-13T23:45:15.896Z,8.36
2023-01-13T23:47:43.728Z,8.33
2023-01-13T23:50:11.968Z,8.30
2023-01-13T23:52:39.805Z,8.27
2023-01-13T23:55:09.538Z,8.22
2023-01-13T23:57:37.210Z,8.18
